Terminal Aerodrome Forecast
Issued by NWS Jackson, MS

Home | Current Version | Previous Version | Text Only | Print | Product List | Glossary On
Versions: 1 2 3 4 5 6 7 8 9 10 11 12
314
FTUS44 KJAN 141722
TAFGLH
TAF
KGLH 141722Z 1418/1518 17019G24KT P6SM OVC070
     FM150300 16010KT P6SM -SHRA OVC025
     FM150600 18011KT P6SM -SHRA OVC015
     FM151500 17011KT 4SM -RA BR OVC007=

USA.gov is the U.S. government's official web portal to all federal, state and local government web resources and services.